sensor_id;sensor_type;location;lat;lon;timestamp;pressure;altitude;pressure_sealevel;temperature;humidity
27958;BME280;15295;42.658;23.374;2023-07-13T18:32:03;94635.72;;;37.25;28.47
27958;BME280;15295;42.658;23.374;2023-07-13T19:26:36;94663.19;;;35.68;29.84
27958;BME280;15295;42.658;23.374;2023-07-13T19:29:11;94694.50;;;35.76;29.51
27958;BME280;15295;42.658;23.374;2023-07-13T19:31:38;94655.22;;;35.38;29.83
27958;BME280;15295;42.658;23.374;2023-07-13T19:34:19;94695.28;;;35.48;29.75
27958;BME280;15295;42.658;23.374;2023-07-13T19:40:20;94648.00;;;35.09;30.41
27958;BME280;15295;42.658;23.374;2023-07-13T19:42:56;94683.13;;;35.19;30.18
27958;BME280;15295;42.658;23.374;2023-07-13T19:45:34;94665.44;;;34.92;30.44
27958;BME280;15295;42.658;23.374;2023-07-13T19:48:08;94676.94;;;34.87;30.04
27958;BME280;15295;42.658;23.374;2023-07-13T19:50:37;94672.38;;;34.63;29.81
27958;BME280;15295;42.658;23.374;2023-07-13T19:53:15;94661.88;;;34.38;30.40
27958;BME280;15295;42.658;23.374;2023-07-13T19:56:06;94680.84;;;34.43;30.13
27958;BME280;15295;42.658;23.374;2023-07-13T19:58:34;94711.13;;;34.61;30.08
27958;BME280;15295;42.658;23.374;2023-07-13T20:01:04;94706.03;;;34.59;30.12
27958;BME280;15295;42.658;23.374;2023-07-13T20:04:02;94653.66;;;34.13;30.26
27958;BME280;15295;42.658;23.374;2023-07-13T20:07:13;94699.31;;;34.36;30.11
27958;BME280;15295;42.658;23.374;2023-07-13T20:09:45;94681.78;;;34.25;30.72
27958;BME280;15295;42.658;23.374;2023-07-13T20:15:14;94659.47;;;33.95;30.27
27958;BME280;15295;42.658;23.374;2023-07-13T20:18:04;94668.75;;;33.95;30.42
27958;BME280;15295;42.658;23.374;2023-07-13T20:21:01;94715.81;;;34.25;30.39
27958;BME280;15295;42.658;23.374;2023-07-13T20:23:46;94668.63;;;34.01;30.79
27958;BME280;15295;42.658;23.374;2023-07-13T20:31:28;94659.72;;;33.84;31.73
27958;BME280;15295;42.658;23.374;2023-07-13T20:34:27;94699.81;;;34.14;31.84
27958;BME280;15295;42.658;23.374;2023-07-13T20:37:29;94674.06;;;33.99;32.09
27958;BME280;15295;42.658;23.374;2023-07-13T20:39:56;94703.69;;;34.24;32.13
27958;BME280;15295;42.658;23.374;2023-07-13T20:43:18;94686.75;;;34.11;32.16
27958;BME280;15295;42.658;23.374;2023-07-13T20:46:00;94691.97;;;33.94;32.36
27958;BME280;15295;42.658;23.374;2023-07-13T20:49:08;94667.69;;;33.72;32.30
27958;BME280;15295;42.658;23.374;2023-07-13T20:51:42;94677.41;;;33.64;31.89
27958;BME280;15295;42.658;23.374;2023-07-13T21:01:37;94678.47;;;33.34;32.38
27958;BME280;15295;42.658;23.374;2023-07-13T21:04:50;94672.25;;;33.23;32.29
27958;BME280;15295;42.658;23.374;2023-07-13T21:07:36;94693.28;;;33.27;32.09
27958;BME280;15295;42.658;23.374;2023-07-13T21:10:34;94660.97;;;32.91;31.35
27958;BME280;15295;42.658;23.374;2023-07-13T21:13:18;94699.13;;;33.03;31.46
27958;BME280;15295;42.658;23.374;2023-07-13T21:16:56;94696.84;;;33.02;31.56
27958;BME280;15295;42.658;23.374;2023-07-13T21:20:01;94697.91;;;32.99;31.83
27958;BME280;15295;42.658;23.374;2023-07-13T21:23:09;94674.00;;;32.81;32.01
27958;BME280;15295;42.658;23.374;2023-07-13T21:26:20;94650.22;;;32.58;31.79
27958;BME280;15295;42.658;23.374;2023-07-13T21:29:39;94660.25;;;32.59;31.66
27958;BME280;15295;42.658;23.374;2023-07-13T21:32:21;94676.78;;;32.68;32.17
27958;BME280;15295;42.658;23.374;2023-07-13T21:40:51;94681.25;;;32.45;33.16
27958;BME280;15295;42.658;23.374;2023-07-13T21:49:38;94692.56;;;32.45;33.91
27958;BME280;15295;42.658;23.374;2023-07-13T21:53:24;94684.81;;;32.32;33.85
27958;BME280;15295;42.658;23.374;2023-07-13T22:02:20;94650.03;;;31.81;34.66
27958;BME280;15295;42.658;23.374;2023-07-13T22:15:40;94687.75;;;31.65;35.85
27958;BME280;15295;42.658;23.374;2023-07-13T22:19:00;94664.44;;;31.59;35.82
27958;BME280;15295;42.658;23.374;2023-07-13T22:21:45;94681.59;;;31.67;36.06
27958;BME280;15295;42.658;23.374;2023-07-13T22:28:00;94611.88;;;31.32;35.84
27958;BME280;15295;42.658;23.374;2023-07-13T22:30:56;94597.53;;;31.30;36.00
27958;BME280;15295;42.658;23.374;2023-07-13T22:34:22;94601.53;;;31.40;35.95
27958;BME280;15295;42.658;23.374;2023-07-13T22:54:30;94652.88;;;31.14;37.10
27958;BME280;15295;42.658;23.374;2023-07-13T22:57:05;94635.97;;;30.85;37.16
27958;BME280;15295;42.658;23.374;2023-07-13T23:00:11;94633.88;;;30.67;37.65
27958;BME280;15295;42.658;23.374;2023-07-13T23:03:18;94618.88;;;30.47;37.90
27958;BME280;15295;42.658;23.374;2023-07-13T23:06:34;94645.25;;;30.56;38.22
27958;BME280;15295;42.658;23.374;2023-07-13T23:09:32;94604.44;;;30.27;38.36
27958;BME280;15295;42.658;23.374;2023-07-13T23:12:01;94618.72;;;30.40;38.41
27958;BME280;15295;42.658;23.374;2023-07-13T23:14:38;94623.91;;;30.30;38.73
27958;BME280;15295;42.658;23.374;2023-07-13T23:17:28;94626.94;;;30.38;38.69
27958;BME280;15295;42.658;23.374;2023-07-13T23:20:00;94587.13;;;30.12;38.47
27958;BME280;15295;42.658;23.374;2023-07-13T23:22:48;94565.25;;;29.94;38.84
27958;BME280;15295;42.658;23.374;2023-07-13T23:25:22;94589.19;;;30.11;38.52
27958;BME280;15295;42.658;23.374;2023-07-13T23:30:36;94586.34;;;30.17;38.84
27958;BME280;15295;42.658;23.374;2023-07-13T23:33:20;94605.22;;;30.27;38.71
27958;BME280;15295;42.658;23.374;2023-07-13T23:35:58;94599.09;;;30.23;38.74
27958;BME280;15295;42.658;23.374;2023-07-13T23:38:46;94597.31;;;30.20;39.15
27958;BME280;15295;42.658;23.374;2023-07-13T23:41:44;94598.63;;;30.19;39.01
27958;BME280;15295;42.658;23.374;2023-07-13T23:44:46;94546.50;;;29.96;39.47
27958;BME280;15295;42.658;23.374;2023-07-13T23:47:53;94566.69;;;30.06;39.40
27958;BME280;15295;42.658;23.374;2023-07-13T23:50:46;94592.00;;;30.11;39.40
27958;BME280;15295;42.658;23.374;2023-07-13T23:53:38;94587.97;;;30.07;39.46
27958;BME280;15295;42.658;23.374;2023-07-13T23:59:11;94523.69;;;29.64;39.54
